Time;durP1;ratioP1;P1;durP2;ratioP2;P2;SDS_P1;SDS_P2;PMS_P1;PMS_P2;Temp;Humidity;BMP_temperature;BMP_pressure;BME280_temperature;BME280_humidity;BME280_pressure;Samples;Min_cycle;Max_cycle;Signal;HPM_P1;HPM_P2
2022/11/08 00:01:59;;;;;;;13.75;2.70;;;13.00;99.90;;;;;;5072943;28;20035;-67
2022/11/08 00:04:25;;;;;;;24.48;3.40;;;13.00;99.90;;;;;;5072387;28;20016;-68
2022/11/08 00:15:05;;;;;;;15.23;3.60;;;12.90;99.90;;;;;;5072633;28;20078;-67
2022/11/08 00:17:31;;;;;;;16.40;3.03;;;12.90;99.90;;;;;;5072962;28;20125;-68
2022/11/08 00:19:57;;;;;;;11.45;2.75;;;12.90;99.90;;;;;;5072454;28;20065;-68
2022/11/08 00:22:24;;;;;;;14.73;3.35;;;12.90;99.90;;;;;;5072930;28;20064;-67
2022/11/08 00:24:50;;;;;;;12.68;3.17;;;12.90;99.90;;;;;;5072296;28;20047;-67
2022/11/08 00:27:19;;;;;;;21.25;2.70;;;12.90;99.90;;;;;;5072824;28;20064;-70
2022/11/08 00:29:45;;;;;;;10.48;2.70;;;12.80;99.90;;;;;;5072451;28;20027;-67
2022/11/08 00:32:22;;;;;;;13.55;2.22;;;12.80;99.90;;;;;;5072525;28;20111;-67
2022/11/08 00:34:48;;;;;;;13.63;3.00;;;12.80;99.90;;;;;;5072162;28;20112;-67
2022/11/08 00:37:15;;;;;;;11.75;2.80;;;12.80;99.90;;;;;;5071224;28;20032;-67
2022/11/08 00:39:41;;;;;;;11.80;2.83;;;12.80;99.90;;;;;;5072391;28;20036;-67
2022/11/08 00:42:07;;;;;;;9.23;2.83;;;12.90;99.90;;;;;;5072486;28;20025;-67
2022/11/08 00:44:34;;;;;;;11.63;2.20;;;12.80;99.90;;;;;;5076339;28;20082;-67
2022/11/08 00:46:59;;;;;;;10.30;2.30;;;12.80;99.90;;;;;;5076525;28;20064;-67
2022/11/08 00:49:25;;;;;;;11.52;2.83;;;12.70;99.90;;;;;;5076188;28;20055;-69
2022/11/08 00:51:51;;;;;;;11.40;2.55;;;12.70;99.90;;;;;;5076462;28;20116;-68
2022/11/08 00:54:19;;;;;;;9.52;2.58;;;12.70;99.90;;;;;;5076136;28;20529;-68
2022/11/08 00:56:47;;;;;;;14.55;3.20;;;12.70;99.90;;;;;;5076469;28;20044;-67
2022/11/08 00:59:15;;;;;;;9.75;2.58;;;12.80;99.90;;;;;;5074840;28;20028;-67
2022/11/08 01:01:41;;;;;;;15.88;3.03;;;12.70;99.90;;;;;;5076261;28;20020;-67
2022/11/08 01:04:09;;;;;;;10.38;3.05;;;12.70;99.90;;;;;;5075544;28;20077;-67
2022/11/08 01:06:35;;;;;;;11.85;3.38;;;12.70;99.90;;;;;;5076209;28;20051;-68
2022/11/08 01:09:00;;;;;;;13.30;3.63;;;12.70;99.90;;;;;;5075972;28;20036;-67
2022/11/08 01:11:27;;;;;;;13.40;3.25;;;12.70;99.90;;;;;;5075904;28;20028;-68
2022/11/08 01:13:57;;;;;;;10.45;3.40;;;12.80;99.90;;;;;;5076195;28;20025;-67
2022/11/08 01:16:27;;;;;;;17.20;3.92;;;12.80;99.90;;;;;;5075628;28;20082;-67
2022/11/08 01:18:54;;;;;;;19.20;3.78;;;12.70;99.90;;;;;;5075574;28;20098;-67
2022/11/08 01:21:21;;;;;;;15.18;3.72;;;12.80;99.90;;;;;;5075557;28;20016;-67
2022/11/08 01:23:47;;;;;;;9.77;3.55;;;12.80;99.90;;;;;;5075891;28;20113;-67
2022/11/08 01:26:21;;;;;;;15.80;3.47;;;12.80;99.90;;;;;;5075455;28;20036;-67
2022/11/08 01:28:47;;;;;;;8.30;3.00;;;12.80;99.90;;;;;;5074668;28;20025;-67
2022/11/08 01:31:21;;;;;;;10.32;3.15;;;12.80;99.90;;;;;;5075272;28;20477;-67
2022/11/08 01:33:47;;;;;;;8.82;3.00;;;12.80;99.90;;;;;;5075873;28;20105;-67
2022/11/08 01:36:16;;;;;;;11.75;3.50;;;12.70;99.90;;;;;;5074735;28;20075;-67
2022/11/08 01:38:42;;;;;;;13.32;3.28;;;12.70;99.90;;;;;;5074334;28;20107;-67
2022/11/08 01:41:12;;;;;;;18.70;3.20;;;12.70;99.90;;;;;;5054073;28;20103;-67
2022/11/08 01:43:58;;;;;;;7.65;2.60;;;12.80;99.90;;;;;;5053808;28;20043;-67
2022/11/08 01:46:39;;;;;;;9.82;2.72;;;12.80;99.90;;;;;;5036124;28;20083;-67
2022/11/08 01:49:31;;;;;;;9.05;2.30;;;12.90;99.90;;;;;;5048248;28;20086;-67
2022/11/08 01:52:00;;;;;;;10.05;3.33;;;12.90;99.90;;;;;;5054153;28;20060;-67
2022/11/08 01:55:11;;;;;;;9.98;2.25;;;12.90;99.90;;;;;;5053829;28;20060;-66
2022/11/08 01:57:40;;;;;;;7.40;2.28;;;12.90;99.90;;;;;;5047698;28;20128;-67
2022/11/08 02:00:09;;;;;;;8.25;2.38;;;12.90;99.90;;;;;;5048562;28;20016;-67
2022/11/08 02:02:36;;;;;;;10.32;2.13;;;12.80;99.90;;;;;;5053892;28;20029;-67
2022/11/08 02:05:05;;;;;;;9.35;2.08;;;12.90;99.90;;;;;;5053848;28;20032;-66
2022/11/08 02:07:33;;;;;;;11.00;2.25;;;12.90;99.90;;;;;;5053607;28;20469;-67
2022/11/08 02:10:00;;;;;;;8.25;1.98;;;12.80;99.90;;;;;;5053988;28;20067;-66
2022/11/08 02:12:27;;;;;;;10.52;2.75;;;12.80;99.90;;;;;;5053707;28;20033;-67
2022/11/08 02:14:53;;;;;;;10.02;2.13;;;12.80;99.90;;;;;;5053510;28;20473;-67
2022/11/08 02:17:19;;;;;;;9.73;2.15;;;12.80;99.90;;;;;;5053379;28;20040;-67
2022/11/08 02:19:48;;;;;;;20.10;2.75;;;12.70;99.90;;;;;;5053919;28;20025;-67
2022/11/08 02:22:30;;;;;;;6.25;1.85;;;12.70;99.90;;;;;;5053451;28;20032;-67
2022/11/08 02:24:59;;;;;;;7.25;1.95;;;12.60;99.90;;;;;;5053826;28;20477;-67
2022/11/08 02:27:25;;;;;;;9.95;2.42;;;12.50;99.90;;;;;;5053272;28;20032;-67
2022/11/08 02:29:55;;;;;;;8.73;2.42;;;12.50;99.90;;;;;;5053334;28;20033;-67
2022/11/08 02:32:21;;;;;;;5.18;1.98;;;12.50;99.90;;;;;;5053343;28;20024;-67
2022/11/08 02:34:52;;;;;;;10.48;2.35;;;12.40;99.90;;;;;;5053489;28;20074;-67
2022/11/08 02:37:20;;;;;;;5.30;1.93;;;12.30;99.90;;;;;;5016595;28;1074214;-67
2022/11/08 02:39:46;;;;;;;9.95;1.95;;;12.40;99.90;;;;;;5053096;28;20377;-67
2022/11/08 02:42:18;;;;;;;11.35;2.83;;;12.30;99.90;;;;;;5054301;28;20120;-67
2022/11/08 02:44:45;;;;;;;16.38;2.95;;;12.40;99.90;;;;;;5053959;28;20021;-67
2022/11/08 02:47:10;;;;;;;8.02;2.20;;;12.40;99.90;;;;;;5052917;28;20025;-67
2022/11/08 02:49:36;;;;;;;9.13;2.22;;;12.40;99.90;;;;;;5053905;28;20047;-67
2022/11/08 02:52:03;;;;;;;7.80;2.08;;;12.40;99.90;;;;;;5054195;28;20066;-67
2022/11/08 02:54:29;;;;;;;11.15;2.65;;;12.30;99.90;;;;;;5053123;28;20028;-67
2022/11/08 02:56:54;;;;;;;5.60;2.25;;;12.20;99.90;;;;;;5053759;28;20450;-67
2022/11/08 02:59:20;;;;;;;19.98;2.75;;;12.20;99.90;;;;;;5052352;28;20037;-66
2022/11/08 03:01:46;;;;;;;8.82;2.40;;;12.20;99.90;;;;;;5053909;28;20108;-68
2022/11/08 03:04:12;;;;;;;10.50;2.97;;;12.10;99.90;;;;;;5053901;28;20032;-67
2022/11/08 03:06:37;;;;;;;8.50;2.63;;;12.00;99.90;;;;;;5053077;28;20491;-67
2022/11/08 03:09:04;;;;;;;7.93;2.38;;;12.00;99.90;;;;;;5053779;28;20033;-67
2022/11/08 03:11:30;;;;;;;9.57;2.85;;;12.00;99.90;;;;;;5053519;28;20064;-67
2022/11/08 03:13:56;;;;;;;11.57;2.25;;;12.10;99.90;;;;;;5053176;28;20040;-67
2022/11/08 03:16:22;;;;;;;8.93;2.10;;;12.00;99.90;;;;;;5052382;28;20110;-68
2022/11/08 03:18:47;;;;;;;7.30;2.95;;;12.00;99.90;;;;;;5053652;28;20468;-66
2022/11/08 03:21:13;;;;;;;12.85;2.72;;;12.00;99.90;;;;;;5053552;28;20115;-68
2022/11/08 03:23:39;;;;;;;13.52;2.97;;;12.10;99.90;;;;;;5053342;28;20075;-68
2022/11/08 03:26:05;;;;;;;9.98;2.70;;;12.10;99.90;;;;;;5053583;28;20052;-68
2022/11/08 03:28:31;;;;;;;7.18;1.98;;;12.00;99.90;;;;;;5053122;28;20021;-68
2022/11/08 03:30:57;;;;;;;8.90;2.00;;;12.10;99.90;;;;;;5053532;28;20044;-68
2022/11/08 03:33:23;;;;;;;11.85;2.22;;;12.10;99.90;;;;;;5053192;28;20051;-66
2022/11/08 03:35:49;;;;;;;11.43;2.78;;;12.00;99.90;;;;;;5053288;28;20063;-68
2022/11/08 03:38:15;;;;;;;8.23;2.88;;;12.00;99.90;;;;;;5053183;28;20099;-68
2022/11/08 03:40:42;;;;;;;12.68;2.80;;;11.90;99.90;;;;;;5053280;28;20032;-67
2022/11/08 03:43:08;;;;;;;11.38;2.85;;;11.90;99.90;;;;;;5052945;28;20087;-68
2022/11/08 03:45:34;;;;;;;10.60;2.75;;;11.80;99.90;;;;;;5053005;28;20401;-68
2022/11/08 03:47:59;;;;;;;12.38;3.47;;;11.80;99.90;;;;;;5051684;28;20033;-68
2022/11/08 03:50:25;;;;;;;14.73;3.97;;;11.80;99.90;;;;;;5053209;28;20033;-69
2022/11/08 03:52:53;;;;;;;17.83;3.80;;;11.90;99.90;;;;;;5052967;28;20040;-68
2022/11/08 03:55:21;;;;;;;12.68;3.90;;;11.90;99.90;;;;;;5052872;28;20063;-68
2022/11/08 03:57:48;;;;;;;17.58;3.63;;;11.70;99.90;;;;;;5052577;28;20106;-68
2022/11/08 04:00:17;;;;;;;10.20;3.38;;;11.60;99.90;;;;;;5053033;28;20032;-68
2022/11/08 04:02:43;;;;;;;10.63;3.35;;;11.70;99.90;;;;;;5051636;28;20024;-68
2022/11/08 04:05:11;;;;;;;11.15;3.13;;;11.60;99.90;;;;;;5051550;28;20107;-68
2022/11/08 04:07:37;;;;;;;9.63;2.83;;;11.60;99.90;;;;;;5052795;28;20021;-68
2022/11/08 04:10:04;;;;;;;14.75;3.30;;;11.70;99.90;;;;;;5052678;28;20427;-69
2022/11/08 04:15:18;;;;;;;9.55;3.10;;;11.50;99.90;;;;;;5052618;28;20028;-68
2022/11/08 04:23:16;;;;;;;12.10;2.88;;;11.50;99.90;;;;;;5052703;28;20029;-68
2022/11/08 04:25:43;;;;;;;10.65;2.88;;;11.40;99.90;;;;;;5050754;28;20385;-68
2022/11/08 04:28:09;;;;;;;8.27;2.20;;;11.50;99.90;;;;;;5051768;28;20492;-68
2022/11/08 04:30:36;;;;;;;7.68;2.42;;;11.40;99.90;;;;;;5051154;28;20040;-68
2022/11/08 04:33:03;;;;;;;10.88;2.47;;;11.50;99.90;;;;;;5052488;28;20100;-69
2022/11/08 04:35:30;;;;;;;9.40;3.20;;;11.50;99.90;;;;;;5050941;28;20539;-68
2022/11/08 04:38:02;;;;;;;9.23;2.78;;;11.50;99.90;;;;;;5052472;28;20051;-68
2022/11/08 04:40:29;;;;;;;;;;;11.50;99.90;;;;;;5052687;28;20104;-68
2022/11/08 04:42:55;;;;;;;6.90;2.00;;;11.40;99.90;;;;;;5052143;28;19909;-68
2022/11/08 04:45:21;;;;;;;10.32;2.15;;;11.30;99.90;;;;;;5052332;28;20044;-68
2022/11/08 04:47:47;;;;;;;9.95;2.42;;;11.30;99.90;;;;;;5052926;28;20457;-68
2022/11/08 04:50:14;;;;;;;10.75;2.33;;;11.40;99.90;;;;;;5052154;28;20053;-69
2022/11/08 04:52:40;;;;;;;9.32;2.50;;;11.40;99.90;;;;;;5052460;28;20124;-68
2022/11/08 04:55:07;;;;;;;11.13;2.90;;;11.40;99.90;;;;;;5051870;28;20029;-68
2022/11/08 04:57:33;;;;;;;7.43;2.40;;;11.40;99.90;;;;;;5052232;28;20036;-68
2022/11/08 04:59:59;;;;;;;7.22;2.25;;;11.40;99.90;;;;;;5052218;28;20032;-68
2022/11/08 05:02:24;;;;;;;13.98;2.55;;;11.40;99.90;;;;;;5052409;28;20428;-69
2022/11/08 05:04:50;;;;;;;5.85;2.20;;;11.40;99.90;;;;;;5052156;28;20025;-68
2022/11/08 05:07:16;;;;;;;3.92;2.13;;;11.40;99.90;;;;;;5050978;28;20031;-68
2022/11/08 05:09:41;;;;;;;6.20;1.80;;;11.50;99.90;;;;;;5051839;28;20175;-69
2022/11/08 05:12:07;;;;;;;11.93;2.22;;;11.50;99.90;;;;;;5052057;28;20036;-67
2022/11/08 05:14:33;;;;;;;5.18;2.25;;;11.50;99.90;;;;;;5052066;28;20087;-67
2022/11/08 05:16:59;;;;;;;4.07;1.65;;;11.60;99.90;;;;;;5050925;28;20037;-66
2022/11/08 05:24:53;;;;;;;7.43;2.50;;;11.60;99.90;;;;;;5051792;28;20423;-68
2022/11/08 05:27:19;;;;;;;5.30;1.88;;;11.70;99.90;;;;;;5034146;28;20155;-68
2022/11/08 05:29:45;;;;;;;10.82;3.05;;;11.60;99.90;;;;;;5054061;28;20033;-68
2022/11/08 05:32:10;;;;;;;4.85;1.88;;;11.70;99.90;;;;;;5055568;28;20029;-69
2022/11/08 05:34:36;;;;;;;9.30;1.58;;;11.70;99.90;;;;;;5055598;28;20017;-68
2022/11/08 05:37:02;;;;;;;8.07;2.50;;;11.60;99.90;;;;;;5055507;28;20032;-68
2022/11/08 05:39:27;;;;;;;7.53;2.13;;;11.60;99.90;;;;;;5055134;28;20032;-69
2022/11/08 05:41:53;;;;;;;4.78;2.33;;;11.50;99.90;;;;;;5054156;28;20032;-68
2022/11/08 05:44:19;;;;;;;8.70;2.28;;;11.60;99.90;;;;;;5055614;28;20028;-68
2022/11/08 05:46:45;;;;;;;8.07;2.38;;;11.60;99.90;;;;;;5054025;28;20503;-69
2022/11/08 05:49:10;;;;;;;7.20;2.15;;;11.50;99.90;;;;;;5055378;28;20104;-68
2022/11/08 05:51:36;;;;;;;8.13;2.03;;;11.50;99.90;;;;;;5054998;28;20109;-68
2022/11/08 05:54:02;;;;;;;4.57;1.92;;;11.60;99.90;;;;;;5055167;28;20021;-68
2022/11/08 05:56:28;;;;;;;5.88;1.83;;;11.60;99.90;;;;;;5053973;28;20091;-69
2022/11/08 05:58:53;;;;;;;9.30;2.33;;;11.70;99.90;;;;;;5055208;28;20021;-68
2022/11/08 06:01:20;;;;;;;6.63;1.75;;;11.70;99.90;;;;;;5055148;28;20067;-68
2022/11/08 06:03:46;;;;;;;7.38;1.92;;;11.80;99.90;;;;;;5055086;28;20029;-68
2022/11/08 06:06:14;;;;;;;3.65;1.63;;;11.70;99.90;;;;;;5055048;28;20045;-69
2022/11/08 06:08:41;;;;;;;5.88;1.65;;;11.80;99.90;;;;;;5054630;28;20021;-68
2022/11/08 06:11:09;;;;;;;5.32;1.80;;;11.90;99.90;;;;;;5054966;28;20025;-68
2022/11/08 06:13:35;;;;;;;4.13;1.90;;;11.90;99.90;;;;;;5053547;28;20021;-68
2022/11/08 06:16:02;;;;;;;4.55;1.90;;;11.90;99.90;;;;;;5054652;28;20482;-68
2022/11/08 06:18:29;;;;;;;6.35;1.80;;;12.00;99.90;;;;;;5054723;28;20033;-68
2022/11/08 06:20:58;;;;;;;9.05;2.15;;;12.10;99.90;;;;;;5054584;28;20057;-68
2022/11/08 06:23:23;;;;;;;5.78;2.00;;;12.10;99.90;;;;;;5053205;28;20039;-68
2022/11/08 06:25:49;;;;;;;5.00;1.92;;;12.20;99.90;;;;;;5054440;28;20397;-70
2022/11/08 06:28:15;;;;;;;9.07;1.98;;;12.40;99.90;;;;;;5054486;28;20021;-69
2022/11/08 06:30:41;;;;;;;4.20;1.38;;;12.40;99.90;;;;;;5054408;28;20048;-70
2022/11/08 06:33:07;;;;;;;7.55;1.55;;;12.40;99.90;;;;;;5054342;28;20032;-72
2022/11/08 06:35:32;;;;;;;3.00;1.70;;;12.50;99.90;;;;;;5053952;28;20029;-72
2022/11/08 06:38:00;;;;;;;5.82;1.90;;;12.60;99.90;;;;;;5054081;28;20369;-71
2022/11/08 06:40:26;;;;;;;2.25;1.45;;;12.60;99.90;;;;;;5053386;28;20026;-72
2022/11/08 06:42:52;;;;;;;13.35;2.70;;;12.70;99.90;;;;;;5053738;28;20079;-71
2022/11/08 06:45:18;;;;;;;4.88;1.52;;;12.70;99.90;;;;;;5054135;28;20119;-71
2022/11/08 06:47:44;;;;;;;3.42;1.83;;;12.70;99.90;;;;;;5052557;28;20033;-72
2022/11/08 06:50:10;;;;;;;4.82;1.70;;;12.70;99.90;;;;;;5046006;28;20117;-69
2022/11/08 06:52:36;;;;;;;3.78;1.92;;;12.60;99.90;;;;;;5046060;28;20040;-71
2022/11/08 06:55:01;;;;;;;3.85;1.30;;;12.70;99.90;;;;;;5056492;28;20040;-72
2022/11/08 06:57:27;;;;;;;5.40;1.73;;;12.60;99.90;;;;;;5060544;28;20024;-72
2022/11/08 06:59:53;;;;;;;4.85;1.70;;;12.80;99.90;;;;;;5058513;28;20025;-71
2022/11/08 07:02:18;;;;;;;4.70;1.30;;;12.80;99.90;;;;;;5045473;28;20029;-72
2022/11/08 07:04:44;;;;;;;3.08;1.80;;;12.80;99.90;;;;;;5058802;28;20056;-72
2022/11/08 07:07:10;;;;;;;4.70;1.40;;;12.80;99.90;;;;;;5054703;28;20029;-72
2022/11/08 07:09:36;;;;;;;3.58;1.35;;;12.60;99.90;;;;;;5061376;28;20039;-72
2022/11/08 07:12:01;;;;;;;9.60;2.05;;;12.70;99.90;;;;;;5063118;28;20108;-72
2022/11/08 07:14:27;;;;;;;4.07;1.73;;;12.80;99.90;;;;;;5059269;28;20078;-70
2022/11/08 07:16:53;;;;;;;6.60;1.80;;;12.80;99.90;;;;;;5056405;28;20025;-72
2022/11/08 07:19:18;;;;;;;4.18;1.80;;;12.80;99.90;;;;;;5052866;28;20029;-72
2022/11/08 07:21:44;;;;;;;5.55;2.03;;;12.80;99.90;;;;;;5062162;28;20107;-71
2022/11/08 07:24:10;;;;;;;7.65;1.40;;;12.80;99.90;;;;;;5061504;28;20404;-72
2022/11/08 07:26:36;;;;;;;6.18;1.83;;;12.90;99.90;;;;;;5058331;28;20040;-71
2022/11/08 07:29:01;;;;;;;6.15;1.88;;;12.80;99.90;;;;;;5055816;28;20017;-73
2022/11/08 07:31:27;;;;;;;5.93;2.08;;;12.90;99.90;;;;;;5059915;28;20077;-71
2022/11/08 07:33:53;;;;;;;7.38;1.60;;;12.90;99.90;;;;;;5050505;28;20037;-71
2022/11/08 07:36:18;;;;;;;8.02;1.70;;;12.90;99.90;;;;;;5060208;28;20083;-72
2022/11/08 07:38:44;;;;;;;5.90;1.77;;;13.00;99.90;;;;;;5059835;28;20055;-72
2022/11/08 07:41:10;;;;;;;5.05;1.80;;;13.00;99.90;;;;;;5052823;28;20013;-69
2022/11/08 07:43:36;;;;;;;5.35;2.00;;;13.00;99.90;;;;;;5062239;28;20021;-69
2022/11/08 07:46:12;;;;;;;6.50;1.50;;;13.00;99.90;;;;;;5060265;28;20063;-72
2022/11/08 07:48:38;;;;;;;2.28;1.10;;;13.00;99.90;;;;;;5060423;28;20477;-71
2022/11/08 07:51:03;;;;;;;6.30;2.10;;;13.00;99.90;;;;;;5065106;28;20388;-73
2022/11/08 07:53:29;;;;;;;4.30;1.73;;;13.00;99.90;;;;;;5057574;28;20358;-71
2022/11/08 07:55:57;;;;;;;6.07;1.73;;;13.00;99.90;;;;;;5054262;28;20033;-72
2022/11/08 07:58:23;;;;;;;8.95;1.70;;;13.00;99.90;;;;;;5064543;28;20047;-72
2022/11/08 08:00:48;;;;;;;6.13;1.80;;;13.10;99.90;;;;;;5062943;28;20468;-72
2022/11/08 08:03:15;;;;;;;4.45;1.80;;;13.10;99.90;;;;;;5057396;28;20112;-71
2022/11/08 08:05:42;;;;;;;5.88;1.92;;;13.10;99.90;;;;;;5055391;28;20033;-71
2022/11/08 08:08:11;;;;;;;4.28;1.92;;;13.10;99.90;;;;;;5050857;28;20029;-72
2022/11/08 08:10:38;;;;;;;4.88;1.67;;;13.10;99.90;;;;;;5050822;28;20013;-71
2022/11/08 08:13:05;;;;;;;5.40;2.00;;;13.20;99.90;;;;;;5052857;28;20025;-71
2022/11/08 08:15:31;;;;;;;7.43;1.60;;;13.20;99.90;;;;;;5051793;28;20025;-72
2022/11/08 08:17:59;;;;;;;4.95;1.77;;;13.30;99.90;;;;;;5051557;28;20116;-70
2022/11/08 08:20:25;;;;;;;4.28;1.95;;;13.30;99.90;;;;;;5052490;28;20075;-72
2022/11/08 08:22:51;;;;;;;7.97;2.25;;;13.50;99.90;;;;;;5052740;28;20378;-72
2022/11/08 08:25:18;;;;;;;4.95;1.55;;;13.40;99.90;;;;;;5052456;28;20029;-70
2022/11/08 08:27:52;;;;;;;5.40;1.70;;;13.40;99.90;;;;;;5052458;28;20051;-68
2022/11/08 08:30:19;;;;;;;6.70;1.60;;;13.50;99.90;;;;;;5052488;28;20116;-72
2022/11/08 08:32:46;;;;;;;5.00;1.85;;;13.40;99.90;;;;;;5049762;28;20025;-71
2022/11/08 08:35:12;;;;;;;5.05;1.52;;;13.40;99.90;;;;;;5056503;28;20121;-69
2022/11/08 08:37:38;;;;;;;7.07;1.50;;;13.50;99.90;;;;;;5053985;28;20029;-69
2022/11/08 08:40:05;;;;;;;8.15;1.40;;;13.50;99.90;;;;;;5056339;28;20021;-72
2022/11/08 08:42:34;;;;;;;4.38;1.63;;;13.60;99.90;;;;;;5055968;28;20044;-72
2022/11/08 08:45:00;;;;;;;5.80;1.80;;;13.60;99.90;;;;;;5063948;28;20033;-71
2022/11/08 08:47:26;;;;;;;3.75;1.70;;;13.70;99.90;;;;;;5055618;28;20032;-72
2022/11/08 08:49:52;;;;;;;5.20;1.63;;;13.70;99.90;;;;;;5060772;28;20477;-71
2022/11/08 08:52:18;;;;;;;4.47;1.75;;;13.70;99.90;;;;;;5059622;28;20060;-70
2022/11/08 08:54:43;;;;;;;10.75;1.75;;;13.80;99.90;;;;;;5059952;28;20095;-68
2022/11/08 08:57:09;;;;;;;6.13;1.70;;;13.70;99.90;;;;;;5052294;28;20032;-68
2022/11/08 08:59:35;;;;;;;4.90;1.27;;;13.80;99.90;;;;;;5062104;28;20031;-68
2022/11/08 09:02:01;;;;;;;5.82;1.88;;;13.80;99.90;;;;;;5060271;28;20501;-68
2022/11/08 09:04:27;;;;;;;3.67;1.85;;;13.90;99.90;;;;;;5061399;28;20037;-69
2022/11/08 09:06:53;;;;;;;10.23;1.45;;;13.90;99.90;;;;;;5057013;28;20049;-69
2022/11/08 09:09:20;;;;;;;6.70;2.00;;;14.00;99.90;;;;;;5063052;28;20523;-70
2022/11/08 09:11:46;;;;;;;9.98;1.92;;;14.10;99.90;;;;;;5071054;28;20090;-71
2022/11/08 09:14:12;;;;;;;7.68;2.03;;;14.20;99.90;;;;;;5064330;28;20128;-71
2022/11/08 09:16:37;;;;;;;5.93;2.25;;;14.10;99.90;;;;;;5063909;28;20086;-71
2022/11/08 09:19:03;;;;;;;9.55;1.80;;;13.90;99.90;;;;;;5057524;28;20469;-68
2022/11/08 09:21:30;;;;;;;9.30;1.65;;;13.90;99.90;;;;;;5053708;28;20060;-68
2022/11/08 09:23:55;;;;;;;13.05;2.58;;;13.80;99.90;;;;;;5053997;28;20036;-70
2022/11/08 09:26:21;;;;;;;4.60;1.70;;;13.90;99.90;;;;;;5055675;28;20033;-68
2022/11/08 09:28:47;;;;;;;4.75;1.60;;;14.00;99.90;;;;;;5055626;28;20367;-69
2022/11/08 09:31:12;;;;;;;4.97;1.95;;;14.10;99.90;;;;;;5054111;28;20033;-71
2022/11/08 09:33:39;;;;;;;3.22;1.77;;;14.30;99.90;;;;;;5055640;28;20481;-69
2022/11/08 09:36:07;;;;;;;11.00;2.03;;;14.20;99.90;;;;;;5055152;28;20029;-70
2022/11/08 09:38:33;;;;;;;5.95;1.63;;;14.40;99.90;;;;;;5055674;28;20040;-71
2022/11/08 09:41:53;;;;;;;2.95;1.35;;;14.50;99.90;;;;;;5054045;28;20048;-69
2022/11/08 09:44:44;;;;;;;7.72;1.92;;;14.40;99.90;;;;;;5053162;28;20159;-68
2022/11/08 09:47:33;;;;;;;3.05;1.50;;;14.20;99.90;;;;;;5013050;28;20505;-69
2022/11/08 09:50:02;;;;;;;7.85;1.70;;;14.20;99.90;;;;;;5027141;28;20037;-69
2022/11/08 09:52:29;;;;;;;6.53;1.80;;;14.20;99.90;;;;;;5055401;28;20041;-69
2022/11/08 09:55:24;;;;;;;8.15;2.05;;;14.30;99.90;;;;;;5053853;28;20013;-68
2022/11/08 09:58:07;;;;;;;8.85;1.92;;;14.30;99.90;;;;;;5055453;28;20056;-68
2022/11/08 10:00:36;;;;;;;4.90;2.13;;;14.30;99.90;;;;;;5054697;28;20047;-70
2022/11/08 10:03:02;;;;;;;5.43;1.67;;;14.30;99.90;;;;;;5055048;28;20021;-69
2022/11/08 10:05:37;;;;;;;9.27;2.08;;;14.40;99.90;;;;;;5054945;28;20025;-70
2022/11/08 10:08:14;;;;;;;7.00;1.88;;;14.60;99.90;;;;;;5055066;28;20059;-69
2022/11/08 10:11:06;;;;;;;3.97;2.22;;;14.60;99.90;;;;;;5054934;28;20037;-71
2022/11/08 10:13:49;;;;;;;13.23;1.98;;;14.50;99.90;;;;;;5054664;28;20500;-71
2022/11/08 10:16:36;;;;;;;11.00;1.90;;;14.50;99.90;;;;;;5054594;28;20055;-71
2022/11/08 10:19:33;;;;;;;5.93;1.92;;;14.40;99.90;;;;;;5054780;28;20037;-72
2022/11/08 10:22:30;;;;;;;9.80;1.92;;;14.40;99.90;;;;;;5054884;28;20135;-72
2022/11/08 10:24:59;;;;;;;9.60;2.50;;;14.30;99.90;;;;;;5053328;28;20108;-72
2022/11/08 10:27:32;;;;;;;3.22;1.65;;;14.50;99.90;;;;;;5048601;28;20025;-70
2022/11/08 10:30:02;;;;;;;5.30;1.73;;;14.40;99.90;;;;;;5064209;28;20020;-69
2022/11/08 10:32:31;;;;;;;9.68;2.10;;;14.30;99.90;;;;;;5055889;28;20025;-70
2022/11/08 10:35:17;;;;;;;18.55;2.28;;;14.30;99.90;;;;;;5049675;28;20028;-71
2022/11/08 10:37:44;;;;;;;6.35;1.80;;;14.20;99.90;;;;;;5056470;28;20507;-68
2022/11/08 10:40:34;;;;;;;4.78;1.98;;;14.10;99.90;;;;;;5054178;28;20036;-70
2022/11/08 10:43:19;;;;;;;8.98;2.35;;;14.20;99.90;;;;;;5060739;28;20036;-71
2022/11/08 10:45:45;;;;;;;7.03;2.30;;;14.40;99.90;;;;;;5061131;28;20485;-69
2022/11/08 10:48:11;;;;;;;9.30;1.67;;;14.30;99.90;;;;;;5053616;28;20081;-70
2022/11/08 10:50:49;;;;;;;7.32;1.73;;;14.40;99.90;;;;;;5055121;28;20039;-70
2022/11/08 10:53:31;;;;;;;4.05;1.42;;;14.60;99.90;;;;;;5066653;28;20035;-71
2022/11/08 10:55:58;;;;;;;;;;;14.70;99.90;;;;;;5047372;28;20055;-71
2022/11/08 10:58:38;;;;;;;32.97;4.22;;;15.00;99.90;;;;;;5058661;28;19905;-70
2022/11/08 11:01:16;;;;;;;9.32;1.80;;;15.20;99.90;;;;;;5056534;28;20542;-70
2022/11/08 11:03:42;;;;;;;14.00;2.83;;;15.20;99.90;;;;;;5056804;28;20060;-71
2022/11/08 11:06:31;;;;;;;18.38;3.10;;;15.20;99.90;;;;;;5069198;28;20481;-68
2022/11/08 11:08:59;;;;;;;6.95;1.90;;;15.20;99.90;;;;;;5060574;28;20027;-69
2022/11/08 11:11:36;;;;;;;4.97;1.92;;;15.40;99.90;;;;;;5058614;28;20617;-70
2022/11/08 11:14:10;;;;;;;8.30;2.00;;;15.30;99.90;;;;;;5051616;28;20052;-70
2022/11/08 11:16:36;;;;;;;8.80;1.77;;;15.60;99.90;;;;;;5051811;28;20083;-71
2022/11/08 11:19:05;;;;;;;6.55;1.77;;;15.90;99.90;;;;;;5052199;28;20598;-70
2022/11/08 11:21:36;;;;;;;3.67;1.98;;;16.10;99.90;;;;;;5052925;28;20029;-70
2022/11/08 11:24:10;;;;;;;5.18;2.25;;;16.50;99.90;;;;;;5051839;28;20047;-70
2022/11/08 11:26:55;;;;;;;6.93;2.50;;;16.30;99.90;;;;;;5051887;28;20095;-70
2022/11/08 11:29:30;;;;;;;7.82;1.60;;;16.10;99.90;;;;;;5053082;28;20104;-68
2022/11/08 11:31:57;;;;;;;11.80;1.77;;;15.80;99.90;;;;;;5052204;28;20025;-70
2022/11/08 11:34:34;;;;;;;5.05;1.92;;;15.50;99.90;;;;;;5053285;28;20086;-70
2022/11/08 11:37:06;;;;;;;8.32;2.75;;;15.50;99.90;;;;;;5053267;28;20056;-68
2022/11/08 11:39:34;;;;;;;6.10;2.17;;;15.70;99.90;;;;;;5053049;28;20036;-69
2022/11/08 11:42:08;;;;;;;4.55;2.25;;;15.80;99.90;;;;;;5052923;28;20029;-69
2022/11/08 11:44:54;;;;;;;9.77;2.00;;;15.70;99.90;;;;;;5052984;28;20033;-68
2022/11/08 11:47:43;;;;;;;9.18;1.85;;;15.70;99.90;;;;;;5053083;28;20036;-69
2022/11/08 11:50:26;;;;;;;5.05;2.00;;;15.50;99.90;;;;;;5038833;28;20052;-67
2022/11/08 11:52:54;;;;;;;7.85;1.98;;;15.50;99.90;;;;;;5053209;28;20037;-68
2022/11/08 11:55:45;;;;;;;13.48;2.42;;;15.60;99.90;;;;;;5052387;28;20041;-68
2022/11/08 11:58:27;;;;;;;7.63;2.13;;;15.60;99.90;;;;;;5051977;28;20564;-67
2022/11/08 12:01:01;;;;;;;9.13;2.05;;;15.60;99.90;;;;;;5043362;28;20039;-68
2022/11/08 12:03:44;;;;;;;6.25;2.20;;;15.80;99.90;;;;;;5051302;28;20122;-71
2022/11/08 12:06:10;;;;;;;7.43;2.00;;;16.20;99.90;;;;;;5051902;28;20051;-68
2022/11/08 12:08:42;;;;;;;7.25;2.17;;;16.40;99.90;;;;;;5052431;28;20104;-68
2022/11/08 12:11:49;;;;;;;5.18;1.83;;;16.20;99.90;;;;;;5040673;28;20036;-69
2022/11/08 12:14:47;;;;;;;8.70;2.90;;;16.20;99.90;;;;;;5037530;28;20061;-69
2022/11/08 12:17:36;;;;;;;5.18;1.67;;;16.50;99.90;;;;;;5050785;28;20017;-69
2022/11/08 12:20:07;;;;;;;11.23;2.25;;;16.40;99.90;;;;;;5050333;28;20064;-69
2022/11/08 12:22:44;;;;;;;6.30;1.88;;;16.50;99.90;;;;;;5052366;28;20071;-71
2022/11/08 12:25:42;;;;;;;6.75;2.40;;;16.40;99.90;;;;;;5050914;28;20087;-69
2022/11/08 12:28:17;;;;;;;13.63;2.42;;;16.60;99.90;;;;;;5047940;28;20045;-68
2022/11/08 12:30:53;;;;;;;5.28;2.50;;;16.50;99.90;;;;;;5049231;28;20025;-69
2022/11/08 12:33:35;;;;;;;6.75;1.98;;;16.50;99.90;;;;;;5041749;28;20025;-69
2022/11/08 12:36:14;;;;;;;6.70;2.17;;;16.60;99.90;;;;;;5052108;28;20036;-69
2022/11/08 12:39:06;;;;;;;7.97;2.42;;;16.40;99.90;;;;;;5054309;28;20034;-68
2022/11/08 12:41:33;;;;;;;7.75;2.33;;;16.40;99.90;;;;;;5056378;28;20086;-68
2022/11/08 12:44:23;;;;;;;5.63;1.92;;;16.50;99.90;;;;;;5056573;28;20040;-69
2022/11/08 12:46:59;;;;;;;8.38;2.03;;;16.60;99.90;;;;;;5045810;28;20041;-69
2022/11/08 12:49:31;;;;;;;4.07;2.22;;;16.50;99.90;;;;;;5056376;28;20086;-68
2022/11/08 12:52:10;;;;;;;8.27;1.92;;;16.70;99.90;;;;;;5056173;28;20032;-70
2022/11/08 12:55:03;;;;;;;13.32;1.92;;;16.50;99.90;;;;;;5056034;28;20029;-69
2022/11/08 12:57:31;;;;;;;11.80;2.45;;;16.80;99.90;;;;;;5045907;28;20029;-69
2022/11/08 13:00:02;;;;;;;4.13;2.15;;;17.20;99.90;;;;;;5054733;28;20029;-69
2022/11/08 13:02:36;;;;;;;7.82;2.30;;;17.20;99.90;;;;;;5056356;28;20029;-69
2022/11/08 13:05:09;;;;;;;13.35;2.20;;;18.00;99.90;;;;;;5054747;28;20033;-69
2022/11/08 13:07:51;;;;;;;7.55;1.75;;;17.80;99.90;;;;;;5055994;28;20029;-69
2022/11/08 13:10:35;;;;;;;5.95;1.95;;;17.50;99.90;;;;;;5054773;28;20032;-69
2022/11/08 13:13:11;;;;;;;9.05;2.63;;;17.30;99.90;;;;;;5056163;28;20043;-69
2022/11/08 13:16:06;;;;;;;9.88;2.47;;;17.30;99.90;;;;;;5055569;28;20384;-69
2022/11/08 13:18:34;;;;;;;11.35;2.53;;;17.20;99.90;;;;;;5055830;28;20041;-69
2022/11/08 13:21:26;;;;;;;6.35;2.05;;;17.00;99.90;;;;;;5055811;28;20025;-69
2022/11/08 13:24:01;;;;;;;12.02;2.35;;;16.60;99.90;;;;;;5055583;28;20037;-68